createdAt,value
2023-05-10T00:00:57.447Z,67.70
2023-05-10T00:03:23.692Z,67.47
2023-05-10T00:05:49.886Z,69.26
2023-05-10T00:08:15.978Z,68.77
2023-05-10T00:10:42.072Z,67.42
2023-05-10T00:13:08.176Z,67.55
2023-05-10T00:15:34.337Z,69.41
2023-05-10T00:18:00.469Z,67.14
2023-05-10T00:20:26.589Z,68.22
2023-05-10T00:22:52.687Z,67.54
2023-05-10T00:25:18.786Z,68.24
2023-05-10T00:27:44.881Z,68.59
2023-05-10T00:30:10.984Z,68.42
2023-05-10T00:32:37.200Z,66.59
2023-05-10T00:35:03.416Z,66.21
2023-05-10T00:37:29.524Z,66.58
2023-05-10T00:39:55.617Z,67.39
2023-05-10T00:42:21.724Z,67.46
2023-05-10T00:44:47.819Z,67.32
2023-05-10T00:47:13.933Z,67.12
2023-05-10T00:49:40.042Z,66.99
2023-05-10T00:52:06.152Z,67.26
2023-05-10T00:54:32.276Z,68.25
2023-05-10T00:56:58.380Z,67.73
2023-05-10T00:59:24.485Z,65.81
2023-05-10T01:01:50.630Z,65.84
2023-05-10T01:04:16.807Z,67.09
2023-05-10T01:06:42.925Z,67.43
2023-05-10T01:09:09.054Z,68.63
2023-05-10T01:11:35.162Z,68.81
2023-05-10T01:14:01.294Z,72.13
2023-05-10T01:16:27.483Z,74.86
2023-05-10T01:18:53.689Z,75.11
2023-05-10T01:21:19.833Z,76.37
2023-05-10T01:23:45.952Z,79.31
2023-05-10T01:26:12.079Z,79.00
2023-05-10T01:28:38.194Z,78.79
2023-05-10T01:31:04.361Z,80.21
2023-05-10T01:33:30.486Z,80.71
2023-05-10T01:35:56.612Z,80.39
2023-05-10T01:38:22.706Z,79.29
2023-05-10T01:40:48.823Z,78.16
2023-05-10T01:43:14.929Z,76.86
2023-05-10T01:45:41.068Z,76.43
2023-05-10T01:48:07.204Z,76.63
2023-05-10T01:50:33.320Z,74.54
2023-05-10T01:52:59.433Z,74.39
2023-05-10T01:55:25.546Z,75.20
2023-05-10T01:57:51.643Z,73.89
2023-05-10T02:00:17.924Z,70.50
2023-05-10T02:02:44.174Z,67.56
2023-05-10T02:05:10.310Z,70.46
2023-05-10T02:07:36.445Z,69.40
2023-05-10T02:10:02.573Z,69.47
2023-05-10T02:12:28.683Z,70.03
2023-05-10T02:14:54.764Z,68.38
2023-05-10T02:17:20.853Z,67.95
2023-05-10T02:19:46.954Z,68.86
2023-05-10T02:22:13.047Z,68.45
2023-05-10T02:24:39.154Z,68.53
2023-05-10T02:27:05.251Z,68.16
2023-05-10T02:29:31.357Z,68.00
2023-05-10T02:31:57.527Z,67.97
2023-05-10T02:34:23.652Z,67.80
2023-05-10T02:36:49.742Z,68.25
2023-05-10T02:39:15.847Z,68.83
2023-05-10T02:41:41.921Z,68.82
2023-05-10T02:44:08.059Z,68.51
2023-05-10T02:46:34.208Z,67.55
2023-05-10T02:49:00.353Z,67.48
2023-05-10T02:51:26.479Z,67.60
2023-05-10T02:53:52.702Z,67.51
2023-05-10T02:56:18.780Z,67.07
2023-05-10T02:58:44.864Z,67.72
2023-05-10T03:01:11.005Z,68.05
2023-05-10T03:03:37.154Z,67.72
2023-05-10T03:06:03.254Z,67.33
2023-05-10T03:08:29.345Z,67.46
2023-05-10T03:10:55.442Z,67.86
2023-05-10T03:13:21.766Z,67.26
2023-05-10T03:15:47.914Z,67.70
2023-05-10T03:18:14.075Z,67.31
2023-05-10T03:20:40.196Z,67.14
2023-05-10T03:23:06.319Z,67.62
2023-05-10T03:25:32.405Z,67.05
2023-05-10T03:27:58.516Z,67.10
2023-05-10T03:30:24.604Z,66.51
2023-05-10T03:32:50.791Z,67.24
2023-05-10T03:35:16.915Z,67.67
2023-05-10T03:37:43.195Z,67.27
2023-05-10T03:40:09.323Z,66.83
2023-05-10T03:42:35.448Z,66.72
2023-05-10T03:45:01.558Z,66.31
2023-05-10T03:47:27.713Z,68.21
2023-05-10T03:49:53.840Z,70.02
2023-05-10T03:52:19.928Z,72.05
2023-05-10T03:54:46.033Z,73.52
2023-05-10T03:57:12.123Z,71.68
2023-05-10T03:59:38.222Z,69.57
2023-05-10T04:02:04.344Z,69.31
2023-05-10T04:04:30.489Z,70.04
2023-05-10T04:06:56.595Z,69.87
2023-05-10T04:09:22.711Z,69.34
2023-05-10T04:11:48.818Z,68.69
2023-05-10T04:14:14.923Z,68.60
2023-05-10T04:16:41.096Z,68.19
2023-05-10T04:19:07.219Z,67.66
2023-05-10T04:21:33.336Z,66.99
2023-05-10T04:23:59.440Z,66.88
2023-05-10T04:26:25.556Z,67.68
2023-05-10T04:28:51.833Z,67.46
2023-05-10T04:31:17.968Z,67.21
2023-05-10T04:33:44.097Z,68.65
2023-05-10T04:36:10.206Z,66.81
2023-05-10T04:38:36.333Z,67.25
2023-05-10T04:41:02.440Z,68.16
2023-05-10T04:43:28.557Z,68.02
2023-05-10T04:45:54.669Z,69.15
2023-05-10T04:48:20.798Z,69.17
2023-05-10T04:50:46.889Z,68.35
2023-05-10T04:53:15.280Z,68.35
2023-05-10T04:55:42.034Z,68.92
2023-05-10T04:58:08.152Z,69.56
2023-05-10T05:00:34.375Z,69.22
2023-05-10T05:03:00.567Z,68.99
2023-05-10T05:05:26.747Z,68.94
2023-05-10T05:07:52.859Z,68.97
2023-05-10T05:10:19.156Z,68.88
2023-05-10T05:12:45.531Z,68.23
2023-05-10T05:15:11.677Z,68.93
2023-05-10T05:17:37.906Z,69.13
2023-05-10T05:20:04.040Z,68.58
2023-05-10T05:22:30.147Z,68.43
2023-05-10T05:24:56.252Z,67.28
2023-05-10T05:27:22.347Z,67.50
2023-05-10T05:29:48.468Z,65.65
2023-05-10T05:32:14.583Z,65.70
2023-05-10T05:34:40.688Z,69.72
2023-05-10T05:37:07.110Z,69.39
2023-05-10T05:39:33.225Z,68.42
2023-05-10T05:41:59.308Z,68.17
2023-05-10T05:44:25.408Z,67.49
2023-05-10T05:46:51.502Z,66.90
2023-05-10T05:49:17.619Z,66.16
2023-05-10T05:51:43.747Z,66.75
2023-05-10T05:54:09.871Z,66.19
2023-05-10T05:56:35.992Z,65.70
2023-05-10T05:59:02.095Z,65.29
2023-05-10T06:01:28.268Z,65.46
2023-05-10T06:03:54.481Z,64.49
2023-05-10T06:06:20.703Z,63.78
2023-05-10T06:08:46.823Z,62.50
2023-05-10T06:11:13.109Z,62.08
2023-05-10T06:13:39.202Z,63.70
2023-05-10T06:16:05.312Z,63.36
2023-05-10T06:18:31.437Z,62.77
2023-05-10T06:20:57.529Z,63.74
2023-05-10T06:23:23.642Z,63.87
2023-05-10T06:25:49.789Z,63.93
2023-05-10T06:28:15.909Z,63.19
2023-05-10T06:30:42.028Z,62.94
2023-05-10T06:33:08.159Z,63.23
2023-05-10T06:35:34.358Z,65.46
2023-05-10T06:38:00.492Z,66.65
2023-05-10T06:40:26.622Z,66.83
2023-05-10T06:42:52.753Z,67.51
2023-05-10T06:45:19.127Z,68.50
2023-05-10T06:47:45.528Z,69.25
2023-05-10T06:50:11.753Z,69.42
2023-05-10T06:52:37.868Z,71.41
2023-05-10T06:55:03.981Z,71.01
2023-05-10T06:57:31.873Z,69.74
2023-05-10T06:59:58.390Z,70.28
2023-05-10T07:02:24.502Z,67.68
2023-05-10T07:04:50.627Z,67.26
2023-05-10T07:07:16.729Z,66.79
2023-05-10T07:09:42.824Z,66.94
2023-05-10T07:12:11.144Z,66.26
2023-05-10T07:14:38.453Z,65.17
2023-05-10T07:17:04.615Z,63.65
2023-05-10T07:19:30.755Z,59.51
2023-05-10T07:21:56.862Z,61.17
2023-05-10T07:24:23.074Z,59.90
2023-05-10T07:26:49.513Z,59.05
2023-05-10T07:29:15.647Z,58.31
2023-05-10T07:31:41.853Z,57.40
2023-05-10T07:34:07.948Z,56.28
2023-05-10T07:36:34.061Z,55.99
2023-05-10T07:39:00.198Z,57.42
2023-05-10T07:41:26.304Z,59.57
2023-05-10T07:43:52.436Z,58.38
2023-05-10T07:46:18.562Z,58.65
2023-05-10T07:48:44.678Z,60.68
2023-05-10T07:51:10.804Z,59.53
2023-05-10T07:53:36.941Z,60.35
2023-05-10T07:56:03.106Z,60.66
2023-05-10T07:58:29.255Z,59.64
2023-05-10T08:00:55.339Z,60.08
2023-05-10T08:03:21.496Z,60.15
2023-05-10T08:05:47.704Z,57.54
2023-05-10T08:08:13.788Z,58.60
2023-05-10T08:10:39.892Z,57.11
2023-05-10T08:13:06.001Z,57.91
2023-05-10T08:15:32.105Z,59.45
2023-05-10T08:17:58.290Z,61.30
2023-05-10T08:20:24.474Z,64.71
2023-05-10T08:22:51.834Z,65.04
2023-05-10T08:25:18.416Z,65.20
2023-05-10T08:27:44.653Z,64.68
2023-05-10T08:30:10.743Z,60.93
2023-05-10T08:32:36.863Z,61.01
2023-05-10T08:35:03.050Z,60.08
2023-05-10T08:37:29.177Z,57.80
2023-05-10T08:39:55.344Z,53.53
2023-05-10T08:42:21.478Z,51.22
2023-05-10T08:44:49.386Z,50.31
2023-05-10T08:47:15.766Z,48.51
2023-05-10T08:49:41.878Z,49.35
2023-05-10T08:52:08.004Z,51.56
2023-05-10T08:54:34.130Z,54.41
2023-05-10T08:57:00.250Z,55.07
2023-05-10T08:59:26.376Z,56.27
2023-05-10T09:01:52.508Z,54.01
2023-05-10T09:04:18.832Z,54.52
2023-05-10T09:06:45.001Z,53.66
2023-05-10T09:09:11.229Z,53.35
2023-05-10T09:11:37.361Z,53.00
2023-05-10T09:14:03.483Z,52.80
2023-05-10T09:16:29.627Z,50.45
2023-05-10T09:18:55.805Z,49.41
2023-05-10T09:21:21.986Z,51.52
2023-05-10T09:23:48.735Z,49.21
2023-05-10T09:26:15.008Z,51.43
2023-05-10T09:28:41.128Z,49.75
2023-05-10T09:31:07.257Z,47.20
2023-05-10T09:33:33.417Z,47.05
2023-05-10T09:35:59.507Z,47.24
2023-05-10T09:38:25.625Z,51.57
2023-05-10T09:40:51.730Z,51.26
2023-05-10T09:43:17.823Z,49.14
2023-05-10T09:45:43.953Z,48.22
2023-05-10T09:48:10.100Z,47.37
2023-05-10T09:50:36.279Z,47.26
2023-05-10T09:53:02.391Z,48.58
2023-05-10T09:55:28.496Z,47.57
2023-05-10T09:57:54.616Z,49.26
2023-05-10T10:00:20.734Z,49.19
2023-05-10T10:02:46.862Z,54.97
2023-05-10T10:05:13.076Z,58.84
2023-05-10T10:07:39.236Z,60.53
2023-05-10T10:10:05.369Z,61.39
2023-05-10T10:12:31.484Z,60.34
2023-05-10T10:14:57.594Z,60.65
2023-05-10T10:17:23.758Z,60.28
2023-05-10T10:19:49.896Z,57.45
2023-05-10T10:22:16.048Z,55.47
2023-05-10T10:24:42.172Z,54.43
2023-05-10T10:27:08.295Z,52.70
2023-05-10T10:29:34.404Z,50.05
2023-05-10T10:32:00.559Z,48.81
2023-05-10T10:34:26.712Z,47.01
2023-05-10T10:36:52.829Z,44.39
2023-05-10T10:39:18.957Z,46.21
2023-05-10T10:41:45.086Z,46.68
2023-05-10T10:44:11.190Z,46.43
2023-05-10T10:46:37.344Z,46.39
2023-05-10T10:49:03.481Z,45.15
2023-05-10T10:51:29.568Z,45.56
2023-05-10T10:53:55.680Z,45.93
2023-05-10T10:56:21.820Z,46.41
2023-05-10T10:58:47.918Z,47.58
2023-05-10T11:01:14.039Z,46.09
2023-05-10T11:03:40.304Z,44.29
2023-05-10T11:06:06.438Z,40.24
2023-05-10T11:08:32.550Z,40.88
2023-05-10T11:10:58.678Z,42.34
2023-05-10T11:13:24.864Z,41.45
2023-05-10T11:15:51.092Z,40.20
2023-05-10T11:18:17.228Z,41.55
2023-05-10T11:20:43.349Z,39.41
2023-05-10T11:23:09.495Z,40.28
2023-05-10T11:25:35.635Z,37.48
2023-05-10T11:28:01.776Z,39.95
2023-05-10T11:30:27.868Z,43.94
2023-05-10T11:32:54.061Z,44.79
2023-05-10T11:35:20.249Z,46.32
2023-05-10T11:37:46.339Z,46.90
2023-05-10T11:40:12.463Z,51.01
2023-05-10T11:42:38.576Z,50.09
2023-05-10T11:45:04.706Z,53.13
2023-05-10T11:47:30.875Z,51.65
2023-05-10T11:49:57.012Z,51.70
2023-05-10T11:52:23.109Z,51.30
2023-05-10T11:54:49.219Z,50.81
2023-05-10T11:57:15.343Z,50.29
2023-05-10T11:59:43.112Z,48.29
2023-05-10T12:02:09.390Z,48.73
2023-05-10T12:04:35.523Z,47.38
2023-05-10T12:07:01.717Z,46.01
2023-05-10T12:09:43.408Z,48.37
2023-05-10T12:12:10.382Z,48.15
2023-05-10T12:14:36.473Z,48.63
2023-05-10T12:17:02.584Z,47.78
2023-05-10T12:19:28.710Z,49.58
2023-05-10T12:21:54.832Z,48.07
2023-05-10T12:24:21.060Z,46.68
2023-05-10T12:26:47.163Z,47.07
2023-05-10T12:29:13.310Z,48.06
2023-05-10T12:31:39.450Z,44.96
2023-05-10T12:34:05.621Z,44.49
2023-05-10T12:36:31.773Z,39.37
2023-05-10T12:38:57.882Z,40.33
2023-05-10T12:41:23.981Z,47.54
2023-05-10T12:43:50.078Z,48.34
2023-05-10T12:46:16.369Z,49.33
2023-05-10T12:48:42.684Z,50.44
2023-05-10T12:51:08.815Z,48.87
2023-05-10T12:53:34.920Z,48.48
2023-05-10T12:56:01.033Z,48.71
2023-05-10T12:58:35.626Z,50.34
2023-05-10T13:01:02.314Z,50.35
2023-05-10T13:03:28.458Z,50.88
2023-05-10T13:05:54.558Z,50.53
2023-05-10T13:08:20.657Z,49.76
2023-05-10T13:10:46.798Z,49.45
2023-05-10T13:13:12.912Z,50.98
2023-05-10T13:15:39.034Z,51.41
2023-05-10T13:18:05.197Z,50.54
2023-05-10T13:20:31.640Z,50.93
2023-05-10T13:22:57.769Z,51.76
2023-05-10T13:25:23.899Z,52.20
2023-05-10T13:27:50.009Z,53.63
2023-05-10T13:30:16.322Z,54.55
2023-05-10T13:32:42.588Z,53.98
2023-05-10T13:35:08.710Z,53.82
2023-05-10T13:37:34.810Z,53.42
2023-05-10T13:40:00.926Z,52.95
2023-05-10T13:42:27.050Z,51.52
2023-05-10T13:44:53.191Z,53.00
2023-05-10T13:47:19.339Z,52.22
2023-05-10T13:49:45.430Z,51.65
2023-05-10T13:52:11.519Z,51.55
2023-05-10T13:54:37.655Z,51.29
2023-05-10T13:57:03.790Z,49.90
2023-05-10T13:59:29.882Z,50.86
2023-05-10T14:01:56.063Z,51.27
2023-05-10T14:04:22.229Z,51.36
2023-05-10T14:06:48.330Z,50.75
2023-05-10T14:09:14.443Z,49.04
2023-05-10T14:11:40.572Z,51.59
2023-05-10T14:14:06.670Z,50.63
2023-05-10T14:16:32.877Z,49.94
2023-05-10T14:18:59.090Z,50.40
2023-05-10T14:21:25.213Z,49.34
2023-05-10T14:23:51.317Z,50.29
2023-05-10T14:26:17.432Z,50.28
2023-05-10T14:28:43.589Z,49.80
2023-05-10T14:31:09.737Z,49.90
2023-05-10T14:33:35.842Z,49.05
2023-05-10T14:36:01.952Z,48.68
2023-05-10T14:38:28.081Z,48.25
2023-05-10T14:40:54.190Z,48.67
2023-05-10T14:43:20.283Z,48.76
2023-05-10T14:45:46.497Z,48.50
2023-05-10T14:48:12.652Z,47.00
2023-05-10T14:50:38.779Z,46.56
2023-05-10T14:53:04.930Z,45.38
2023-05-10T14:55:31.078Z,44.31
2023-05-10T14:57:57.347Z,43.88
2023-05-10T15:00:24.755Z,44.85
2023-05-10T15:02:51.713Z,45.26
2023-05-10T15:05:18.595Z,45.60
2023-05-10T15:07:45.154Z,44.13
2023-05-10T15:10:11.253Z,45.20
2023-05-10T15:12:37.352Z,44.94
2023-05-10T15:15:03.488Z,46.14
2023-05-10T15:17:29.669Z,45.44
2023-05-10T15:19:55.809Z,45.27
2023-05-10T15:22:21.916Z,46.05
2023-05-10T15:24:48.023Z,44.60
2023-05-10T15:27:14.145Z,44.80
2023-05-10T15:29:40.285Z,45.93
2023-05-10T15:32:06.397Z,45.91
2023-05-10T15:34:34.897Z,46.98
2023-05-10T15:37:01.946Z,46.06
2023-05-10T15:39:28.034Z,45.28
2023-05-10T15:41:54.167Z,45.68
2023-05-10T15:44:20.253Z,44.06
2023-05-10T15:46:46.521Z,42.96
2023-05-10T15:49:12.651Z,43.27
2023-05-10T15:51:38.737Z,42.78
2023-05-10T15:54:07.728Z,45.00
2023-05-10T15:56:34.472Z,46.53
2023-05-10T15:59:00.600Z,46.30
2023-05-10T16:01:26.862Z,45.28
2023-05-10T16:03:53.085Z,44.59
2023-05-10T16:06:19.178Z,44.84
2023-05-10T16:08:45.326Z,46.12
2023-05-10T16:11:11.456Z,46.59
2023-05-10T16:13:37.556Z,46.96
2023-05-10T16:16:03.775Z,45.69
2023-05-10T16:18:30.051Z,47.10
2023-05-10T16:20:56.266Z,46.50
2023-05-10T16:23:22.400Z,47.18
2023-05-10T16:25:48.485Z,47.77
2023-05-10T16:28:14.623Z,46.71
2023-05-10T16:30:40.781Z,48.36
2023-05-10T16:33:06.953Z,48.47
2023-05-10T16:35:33.226Z,49.22
2023-05-10T16:37:59.315Z,49.29
2023-05-10T16:40:25.424Z,49.66
2023-05-10T16:42:51.731Z,50.92
2023-05-10T16:45:18.180Z,50.23
2023-05-10T16:47:44.600Z,49.45
2023-05-10T16:50:11.004Z,49.10
2023-05-10T16:52:37.171Z,49.15
2023-05-10T16:55:03.277Z,49.08
2023-05-10T16:57:29.361Z,50.04
2023-05-10T16:59:55.466Z,49.71
2023-05-10T17:02:21.636Z,49.13
2023-05-10T17:04:47.763Z,49.25
2023-05-10T17:07:13.853Z,49.53
2023-05-10T17:09:39.941Z,50.44
2023-05-10T17:12:06.033Z,50.43
2023-05-10T17:14:32.261Z,50.21
2023-05-10T17:16:58.491Z,51.57
2023-05-10T17:19:26.240Z,51.72
2023-05-10T17:21:52.560Z,52.29
2023-05-10T17:24:18.679Z,51.11
2023-05-10T17:26:44.774Z,51.73
2023-05-10T17:29:10.900Z,52.16
2023-05-10T17:31:37.129Z,52.54
2023-05-10T17:34:05.489Z,51.35
2023-05-10T17:36:31.979Z,51.75
2023-05-10T17:38:58.102Z,51.79
2023-05-10T17:41:24.402Z,51.14
2023-05-10T17:43:50.538Z,51.79
2023-05-10T17:46:16.711Z,51.10
2023-05-10T17:48:42.992Z,50.80
2023-05-10T17:51:09.198Z,52.14
2023-05-10T17:53:35.280Z,52.42
2023-05-10T17:56:01.385Z,51.01
2023-05-10T17:58:27.567Z,51.45
2023-05-10T18:00:53.901Z,51.66
2023-05-10T18:03:20.044Z,53.26
2023-05-10T18:05:46.232Z,52.73
2023-05-10T18:08:12.565Z,52.98
2023-05-10T18:10:41.247Z,51.58
2023-05-10T18:13:08.824Z,51.61
2023-05-10T18:15:35.152Z,50.51
2023-05-10T18:18:01.640Z,50.79
2023-05-10T18:20:27.907Z,53.00
2023-05-10T18:22:54.006Z,52.81
2023-05-10T18:25:20.295Z,53.25
2023-05-10T18:27:46.556Z,51.46
2023-05-10T18:30:12.722Z,50.03
2023-05-10T18:32:38.878Z,48.82
2023-05-10T18:35:05.008Z,49.70
2023-05-10T18:37:31.133Z,50.43
2023-05-10T18:39:57.232Z,50.54
2023-05-10T18:42:23.667Z,51.23
2023-05-10T18:44:49.763Z,51.39
2023-05-10T18:47:16.001Z,51.50
2023-05-10T18:49:42.137Z,52.41
2023-05-10T18:52:08.236Z,51.91
2023-05-10T18:54:34.398Z,51.68
2023-05-10T18:57:00.687Z,50.97
2023-05-10T18:59:26.827Z,50.17
2023-05-10T19:01:54.936Z,52.41
2023-05-10T19:04:22.591Z,51.78
2023-05-10T19:06:48.709Z,52.14
2023-05-10T19:09:14.819Z,51.83
2023-05-10T19:11:40.934Z,54.14
2023-05-10T19:14:07.020Z,52.23
2023-05-10T19:16:34.311Z,52.13
2023-05-10T19:19:00.766Z,52.48
2023-05-10T19:21:26.920Z,52.17
2023-05-10T19:23:53.047Z,50.60
2023-05-10T19:26:19.167Z,50.50
2023-05-10T19:28:45.270Z,51.84
2023-05-10T19:31:11.454Z,52.03
2023-05-10T19:33:38.468Z,53.34
2023-05-10T19:36:04.823Z,55.32
2023-05-10T19:38:30.930Z,54.10
2023-05-10T19:40:57.040Z,53.68
2023-05-10T19:43:23.211Z,50.81
2023-05-10T19:45:49.357Z,51.17
2023-05-10T19:48:15.455Z,49.78
2023-05-10T19:50:41.533Z,50.39
2023-05-10T19:53:07.649Z,51.55
2023-05-10T19:55:33.786Z,53.22
2023-05-10T19:57:59.930Z,52.46
2023-05-10T20:00:26.124Z,52.18
2023-05-10T20:02:52.271Z,52.25
2023-05-10T20:05:18.604Z,51.01
2023-05-10T20:07:44.890Z,51.44
2023-05-10T20:10:11.007Z,54.50
2023-05-10T20:12:37.447Z,52.36
2023-05-10T20:15:03.689Z,51.78
2023-05-10T20:17:29.914Z,53.17
2023-05-10T20:19:56.052Z,52.88
2023-05-10T20:22:22.503Z,52.22
2023-05-10T20:24:48.618Z,51.72
2023-05-10T20:27:14.708Z,52.62
2023-05-10T20:29:40.861Z,52.91
2023-05-10T20:32:06.973Z,52.62
2023-05-10T20:34:33.084Z,51.79
2023-05-10T20:36:59.198Z,54.80
2023-05-10T20:39:25.308Z,56.33
2023-05-10T20:41:51.434Z,56.87
2023-05-10T20:44:17.575Z,57.02
2023-05-10T20:46:43.682Z,57.24
2023-05-10T20:49:09.908Z,57.78
2023-05-10T20:51:36.012Z,57.41
2023-05-10T20:54:02.112Z,56.70
2023-05-10T20:56:28.257Z,56.40
2023-05-10T20:58:54.382Z,56.61
2023-05-10T21:01:20.653Z,56.64
2023-05-10T21:03:46.849Z,56.31
2023-05-10T21:06:12.943Z,57.22
2023-05-10T21:08:39.056Z,57.32
2023-05-10T21:11:05.152Z,56.87
2023-05-10T21:13:31.258Z,56.90
2023-05-10T21:15:57.536Z,57.40
2023-05-10T21:18:23.707Z,56.38
2023-05-10T21:20:49.847Z,57.20
2023-05-10T21:23:15.975Z,57.69
2023-05-10T21:25:42.076Z,58.68
2023-05-10T21:28:08.178Z,57.45
2023-05-10T21:30:34.280Z,56.92
2023-05-10T21:33:00.426Z,56.69
2023-05-10T21:35:26.533Z,56.47
2023-05-10T21:37:52.665Z,56.88
2023-05-10T21:40:18.911Z,57.48
2023-05-10T21:42:45.178Z,58.21
2023-05-10T21:45:11.322Z,58.34
2023-05-10T21:47:37.505Z,57.88
2023-05-10T21:50:03.662Z,57.88
2023-05-10T21:52:29.791Z,57.69
2023-05-10T21:54:55.890Z,57.92
2023-05-10T21:57:21.997Z,58.46
2023-05-10T21:59:48.122Z,57.76
2023-05-10T22:02:14.252Z,58.08
2023-05-10T22:04:40.374Z,58.43
2023-05-10T22:07:06.594Z,58.96
2023-05-10T22:09:32.690Z,61.27
2023-05-10T22:11:58.830Z,60.88
2023-05-10T22:14:24.922Z,60.52
2023-05-10T22:16:51.060Z,61.34
2023-05-10T22:19:17.230Z,60.62
2023-05-10T22:21:43.352Z,59.64
2023-05-10T22:24:09.557Z,59.37
2023-05-10T22:26:35.673Z,59.95
2023-05-10T22:29:01.873Z,59.00
2023-05-10T22:31:28.183Z,58.86
2023-05-10T22:33:54.357Z,58.54
2023-05-10T22:36:20.612Z,58.02
2023-05-10T22:38:46.836Z,57.97
2023-05-10T22:41:12.970Z,58.48
2023-05-10T22:43:39.059Z,58.85
2023-05-10T22:46:05.217Z,58.15
2023-05-10T22:48:31.348Z,57.62
2023-05-10T22:50:57.449Z,57.55
2023-05-10T22:53:23.677Z,58.67
2023-05-10T22:55:49.789Z,59.69
2023-05-10T22:58:16.021Z,59.37
2023-05-10T23:00:42.142Z,59.66
2023-05-10T23:03:08.243Z,59.59
2023-05-10T23:05:34.354Z,59.27
2023-05-10T23:08:00.462Z,59.35
2023-05-10T23:10:26.556Z,58.49
2023-05-10T23:12:52.655Z,58.42
2023-05-10T23:15:18.789Z,58.08
2023-05-10T23:17:44.913Z,57.90
2023-05-10T23:20:11.123Z,57.37
2023-05-10T23:22:37.259Z,57.95
2023-05-10T23:25:03.449Z,58.45
2023-05-10T23:27:29.571Z,58.57
2023-05-10T23:29:55.800Z,57.48
2023-05-10T23:32:21.985Z,58.97
2023-05-10T23:34:48.126Z,58.97
2023-05-10T23:37:14.234Z,58.70
2023-05-10T23:39:40.331Z,58.71
2023-05-10T23:42:06.443Z,58.59
2023-05-10T23:44:32.593Z,58.52
2023-05-10T23:46:58.967Z,58.05
2023-05-10T23:49:25.093Z,58.49
2023-05-10T23:51:51.189Z,58.27
2023-05-10T23:54:17.282Z,57.94
2023-05-10T23:56:43.401Z,59.11
2023-05-10T23:59:09.499Z,58.21
